sensor_id;sensor_type;location;lat;lon;timestamp;temperature;humidity
72576;DHT22;60613;48.658;2.328;2023-06-04T06:02:41;24.90;39.70
72576;DHT22;60613;48.658;2.328;2023-06-04T06:05:07;24.90;40.60
72576;DHT22;60613;48.658;2.328;2023-06-04T06:07:34;24.90;40.60
72576;DHT22;60613;48.658;2.328;2023-06-04T06:09:59;24.90;40.50
72576;DHT22;60613;48.658;2.328;2023-06-04T06:12:25;24.90;40.50
72576;DHT22;60613;48.658;2.328;2023-06-04T06:14:51;24.90;40.40
72576;DHT22;60613;48.658;2.328;2023-06-04T06:17:16;24.90;40.30
72576;DHT22;60613;48.658;2.328;2023-06-04T06:19:42;24.90;40.30
72576;DHT22;60613;48.658;2.328;2023-06-04T06:22:08;25.00;40.30
72576;DHT22;60613;48.658;2.328;2023-06-04T06:24:33;25.00;40.20
72576;DHT22;60613;48.658;2.328;2023-06-04T06:26:59;25.00;40.10
72576;DHT22;60613;48.658;2.328;2023-06-04T06:29:25;25.00;39.90
72576;DHT22;60613;48.658;2.328;2023-06-04T06:31:51;25.00;39.90
72576;DHT22;60613;48.658;2.328;2023-06-04T06:34:16;25.00;39.60
72576;DHT22;60613;48.658;2.328;2023-06-04T06:36:42;24.90;35.60
72576;DHT22;60613;48.658;2.328;2023-06-04T06:39:08;24.90;33.60
72576;DHT22;60613;48.658;2.328;2023-06-04T06:41:34;24.70;33.20
72576;DHT22;60613;48.658;2.328;2023-06-04T06:44:00;24.70;32.80
72576;DHT22;60613;48.658;2.328;2023-06-04T06:46:25;24.60;32.60
72576;DHT22;60613;48.658;2.328;2023-06-04T06:48:51;24.50;32.40
72576;DHT22;60613;48.658;2.328;2023-06-04T06:51:17;24.40;32.40
72576;DHT22;60613;48.658;2.328;2023-06-04T06:53:43;24.40;32.30
72576;DHT22;60613;48.658;2.328;2023-06-04T06:56:09;24.30;32.60
72576;DHT22;60613;48.658;2.328;2023-06-04T06:58:34;24.20;32.70
72576;DHT22;60613;48.658;2.328;2023-06-04T07:01:00;24.20;32.70
72576;DHT22;60613;48.658;2.328;2023-06-04T07:03:26;24.10;32.70
72576;DHT22;60613;48.658;2.328;2023-06-04T07:05:53;24.10;33.60
72576;DHT22;60613;48.658;2.328;2023-06-04T07:08:19;24.10;34.80
72576;DHT22;60613;48.658;2.328;2023-06-04T07:10:46;24.10;34.90
72576;DHT22;60613;48.658;2.328;2023-06-04T07:13:11;24.00;35.20
72576;DHT22;60613;48.658;2.328;2023-06-04T07:15:37;24.00;34.90
72576;DHT22;60613;48.658;2.328;2023-06-04T07:18:02;23.90;35.50
72576;DHT22;60613;48.658;2.328;2023-06-04T07:20:28;24.00;35.70
72576;DHT22;60613;48.658;2.328;2023-06-04T07:22:54;24.10;36.00
72576;DHT22;60613;48.658;2.328;2023-06-04T07:25:19;24.30;36.20
72576;DHT22;60613;48.658;2.328;2023-06-04T07:27:45;24.40;36.30
72576;DHT22;60613;48.658;2.328;2023-06-04T07:30:13;24.50;36.30
72576;DHT22;60613;48.658;2.328;2023-06-04T07:32:39;24.50;36.50
72576;DHT22;60613;48.658;2.328;2023-06-04T07:35:05;24.60;36.90
72576;DHT22;60613;48.658;2.328;2023-06-04T07:37:31;24.60;36.70
72576;DHT22;60613;48.658;2.328;2023-06-04T07:39:56;24.70;37.00
72576;DHT22;60613;48.658;2.328;2023-06-04T07:42:22;24.70;36.90
72576;DHT22;60613;48.658;2.328;2023-06-04T07:44:47;24.70;37.10
72576;DHT22;60613;48.658;2.328;2023-06-04T07:47:13;24.80;37.60
72576;DHT22;60613;48.658;2.328;2023-06-04T07:49:39;24.90;39.30
72576;DHT22;60613;48.658;2.328;2023-06-04T07:52:04;24.90;39.30
72576;DHT22;60613;48.658;2.328;2023-06-04T07:54:30;24.90;39.30
72576;DHT22;60613;48.658;2.328;2023-06-04T07:56:56;24.90;39.30
72576;DHT22;60613;48.658;2.328;2023-06-04T07:59:23;24.90;39.30
72576;DHT22;60613;48.658;2.328;2023-06-04T08:01:50;25.00;39.30
72576;DHT22;60613;48.658;2.328;2023-06-04T08:04:15;25.00;38.80
72576;DHT22;60613;48.658;2.328;2023-06-04T08:06:41;25.00;39.30
72576;DHT22;60613;48.658;2.328;2023-06-04T08:09:07;25.00;37.40
72576;DHT22;60613;48.658;2.328;2023-06-04T08:11:35;25.00;35.70
72576;DHT22;60613;48.658;2.328;2023-06-04T08:14:03;24.90;35.50
72576;DHT22;60613;48.658;2.328;2023-06-04T08:16:29;25.00;36.60
72576;DHT22;60613;48.658;2.328;2023-06-04T08:18:55;25.00;36.70
72576;DHT22;60613;48.658;2.328;2023-06-04T08:21:27;25.00;37.20
72576;DHT22;60613;48.658;2.328;2023-06-04T08:23:54;25.00;38.40
72576;DHT22;60613;48.658;2.328;2023-06-04T08:26:20;25.10;37.20
72576;DHT22;60613;48.658;2.328;2023-06-04T08:28:48;25.10;37.00
72576;DHT22;60613;48.658;2.328;2023-06-04T08:31:14;25.10;37.00
72576;DHT22;60613;48.658;2.328;2023-06-04T08:33:40;25.10;37.00
72576;DHT22;60613;48.658;2.328;2023-06-04T08:36:06;25.10;37.10
72576;DHT22;60613;48.658;2.328;2023-06-04T08:38:32;25.10;37.20
72576;DHT22;60613;48.658;2.328;2023-06-04T08:41:05;25.10;36.60
72576;DHT22;60613;48.658;2.328;2023-06-04T08:43:36;25.10;35.90
72576;DHT22;60613;48.658;2.328;2023-06-04T08:46:05;25.10;36.20
72576;DHT22;60613;48.658;2.328;2023-06-04T08:48:34;25.10;36.30
72576;DHT22;60613;48.658;2.328;2023-06-04T08:51:02;25.10;35.70
72576;DHT22;60613;48.658;2.328;2023-06-04T08:53:27;25.10;36.50
72576;DHT22;60613;48.658;2.328;2023-06-04T08:55:53;25.10;36.90
72576;DHT22;60613;48.658;2.328;2023-06-04T08:58:20;25.20;37.00
72576;DHT22;60613;48.658;2.328;2023-06-04T09:00:46;25.20;36.80
72576;DHT22;60613;48.658;2.328;2023-06-04T09:03:12;25.20;36.60
72576;DHT22;60613;48.658;2.328;2023-06-04T09:05:39;25.20;36.50
72576;DHT22;60613;48.658;2.328;2023-06-04T09:08:08;25.20;35.60
72576;DHT22;60613;48.658;2.328;2023-06-04T09:10:38;25.20;35.30
72576;DHT22;60613;48.658;2.328;2023-06-04T09:13:06;25.20;35.40
72576;DHT22;60613;48.658;2.328;2023-06-04T09:15:33;25.20;35.20
72576;DHT22;60613;48.658;2.328;2023-06-04T09:17:59;25.20;34.70
72576;DHT22;60613;48.658;2.328;2023-06-04T09:20:24;25.20;34.60
72576;DHT22;60613;48.658;2.328;2023-06-04T09:22:51;25.20;34.30
72576;DHT22;60613;48.658;2.328;2023-06-04T09:25:27;25.20;32.90
72576;DHT22;60613;48.658;2.328;2023-06-04T09:27:54;25.20;33.00
72576;DHT22;60613;48.658;2.328;2023-06-04T09:30:23;25.20;32.60
72576;DHT22;60613;48.658;2.328;2023-06-04T09:32:49;25.20;32.60
72576;DHT22;60613;48.658;2.328;2023-06-04T09:37:42;25.20;32.20
72576;DHT22;60613;48.658;2.328;2023-06-04T09:40:09;25.30;32.10
72576;DHT22;60613;48.658;2.328;2023-06-04T09:42:44;25.30;31.90
72576;DHT22;60613;48.658;2.328;2023-06-04T09:45:10;25.40;31.60
72576;DHT22;60613;48.658;2.328;2023-06-04T09:47:43;25.40;32.30
72576;DHT22;60613;48.658;2.328;2023-06-04T09:50:12;25.40;32.60
72576;DHT22;60613;48.658;2.328;2023-06-04T09:52:38;25.50;33.10
72576;DHT22;60613;48.658;2.328;2023-06-04T09:55:16;25.50;33.30
72576;DHT22;60613;48.658;2.328;2023-06-04T09:57:50;25.60;33.60
72576;DHT22;60613;48.658;2.328;2023-06-04T10:00:24;25.60;33.70
72576;DHT22;60613;48.658;2.328;2023-06-04T10:02:56;25.60;34.00
72576;DHT22;60613;48.658;2.328;2023-06-04T10:05:23;25.70;34.10
72576;DHT22;60613;48.658;2.328;2023-06-04T10:07:51;25.70;34.10
72576;DHT22;60613;48.658;2.328;2023-06-04T10:10:23;25.70;34.50
72576;DHT22;60613;48.658;2.328;2023-06-04T10:12:56;25.70;34.50
72576;DHT22;60613;48.658;2.328;2023-06-04T10:15:25;25.70;34.40
72576;DHT22;60613;48.658;2.328;2023-06-04T10:17:52;25.80;34.60
72576;DHT22;60613;48.658;2.328;2023-06-04T10:20:19;25.80;34.30
72576;DHT22;60613;48.658;2.328;2023-06-04T10:22:47;25.80;34.90
72576;DHT22;60613;48.658;2.328;2023-06-04T10:25:13;25.80;35.10
72576;DHT22;60613;48.658;2.328;2023-06-04T10:27:40;25.80;35.20
72576;DHT22;60613;48.658;2.328;2023-06-04T10:30:06;25.80;35.00
72576;DHT22;60613;48.658;2.328;2023-06-04T10:32:33;25.70;34.10
72576;DHT22;60613;48.658;2.328;2023-06-04T10:35:04;25.70;33.80
72576;DHT22;60613;48.658;2.328;2023-06-04T10:37:30;25.70;33.90
72576;DHT22;60613;48.658;2.328;2023-06-04T10:39:57;25.70;33.50
72576;DHT22;60613;48.658;2.328;2023-06-04T10:42:24;25.70;33.30
72576;DHT22;60613;48.658;2.328;2023-06-04T10:44:52;25.70;32.50
72576;DHT22;60613;48.658;2.328;2023-06-04T10:47:19;25.70;32.30
72576;DHT22;60613;48.658;2.328;2023-06-04T10:49:46;25.70;31.10
72576;DHT22;60613;48.658;2.328;2023-06-04T10:52:12;25.70;32.30
72576;DHT22;60613;48.658;2.328;2023-06-04T10:54:37;25.70;32.70
72576;DHT22;60613;48.658;2.328;2023-06-04T10:57:13;25.70;32.30
72576;DHT22;60613;48.658;2.328;2023-06-04T10:59:39;25.70;31.90
72576;DHT22;60613;48.658;2.328;2023-06-04T11:02:08;25.70;31.00
72576;DHT22;60613;48.658;2.328;2023-06-04T11:04:35;25.70;31.30
72576;DHT22;60613;48.658;2.328;2023-06-04T11:07:06;25.70;32.10
72576;DHT22;60613;48.658;2.328;2023-06-04T11:09:36;25.70;32.00
72576;DHT22;60613;48.658;2.328;2023-06-04T11:12:03;25.80;31.90
72576;DHT22;60613;48.658;2.328;2023-06-04T11:14:29;25.80;31.80
72576;DHT22;60613;48.658;2.328;2023-06-04T11:16:55;25.80;31.20
72576;DHT22;60613;48.658;2.328;2023-06-04T11:19:21;25.80;31.80
72576;DHT22;60613;48.658;2.328;2023-06-04T11:21:48;25.80;31.30
72576;DHT22;60613;48.658;2.328;2023-06-04T11:24:14;25.80;30.80
72576;DHT22;60613;48.658;2.328;2023-06-04T11:26:39;25.90;31.90
72576;DHT22;60613;48.658;2.328;2023-06-04T11:29:10;25.80;31.90
72576;DHT22;60613;48.658;2.328;2023-06-04T11:31:43;25.80;31.20
72576;DHT22;60613;48.658;2.328;2023-06-04T11:34:10;25.90;31.00
72576;DHT22;60613;48.658;2.328;2023-06-04T11:36:38;25.90;31.90
72576;DHT22;60613;48.658;2.328;2023-06-04T11:39:05;25.90;31.90
72576;DHT22;60613;48.658;2.328;2023-06-04T11:41:34;25.80;31.80
72576;DHT22;60613;48.658;2.328;2023-06-04T11:44:04;25.90;32.00
72576;DHT22;60613;48.658;2.328;2023-06-04T11:46:34;25.90;31.90
72576;DHT22;60613;48.658;2.328;2023-06-04T11:49:00;25.90;31.90
72576;DHT22;60613;48.658;2.328;2023-06-04T11:51:27;25.90;31.70
72576;DHT22;60613;48.658;2.328;2023-06-04T11:53:53;25.90;31.90
72576;DHT22;60613;48.658;2.328;2023-06-04T11:56:18;25.90;31.70
72576;DHT22;60613;48.658;2.328;2023-06-04T11:58:44;25.90;31.40
72576;DHT22;60613;48.658;2.328;2023-06-04T12:01:12;25.90;31.10
72576;DHT22;60613;48.658;2.328;2023-06-04T12:03:40;25.90;31.20
72576;DHT22;60613;48.658;2.328;2023-06-04T12:06:10;25.90;31.50
72576;DHT22;60613;48.658;2.328;2023-06-04T12:08:49;26.00;31.10
72576;DHT22;60613;48.658;2.328;2023-06-04T12:11:33;26.00;30.70
72576;DHT22;60613;48.658;2.328;2023-06-04T12:14:03;26.00;30.30
72576;DHT22;60613;48.658;2.328;2023-06-04T12:16:29;26.00;30.70
72576;DHT22;60613;48.658;2.328;2023-06-04T12:19:08;26.00;30.20
72576;DHT22;60613;48.658;2.328;2023-06-04T12:21:34;26.00;30.30
72576;DHT22;60613;48.658;2.328;2023-06-04T12:26:33;26.00;30.70
72576;DHT22;60613;48.658;2.328;2023-06-04T12:29:07;26.10;31.00
72576;DHT22;60613;48.658;2.328;2023-06-04T12:31:35;26.10;30.30
72576;DHT22;60613;48.658;2.328;2023-06-04T12:34:01;26.10;30.50
72576;DHT22;60613;48.658;2.328;2023-06-04T12:36:27;26.10;31.40
72576;DHT22;60613;48.658;2.328;2023-06-04T12:38:58;26.10;30.50
72576;DHT22;60613;48.658;2.328;2023-06-04T12:41:26;26.10;30.90
72576;DHT22;60613;48.658;2.328;2023-06-04T12:43:51;26.10;30.50
72576;DHT22;60613;48.658;2.328;2023-06-04T12:46:17;26.10;30.80
72576;DHT22;60613;48.658;2.328;2023-06-04T12:48:43;26.10;30.80
72576;DHT22;60613;48.658;2.328;2023-06-04T12:51:09;26.10;31.00
72576;DHT22;60613;48.658;2.328;2023-06-04T12:53:41;26.10;30.70
72576;DHT22;60613;48.658;2.328;2023-06-04T12:56:09;26.10;30.80
72576;DHT22;60613;48.658;2.328;2023-06-04T12:58:35;26.10;30.90
72576;DHT22;60613;48.658;2.328;2023-06-04T13:01:04;26.10;31.20
72576;DHT22;60613;48.658;2.328;2023-06-04T13:03:30;26.10;30.90
72576;DHT22;60613;48.658;2.328;2023-06-04T13:05:56;26.10;30.70
72576;DHT22;60613;48.658;2.328;2023-06-04T13:08:22;26.20;30.30
72576;DHT22;60613;48.658;2.328;2023-06-04T13:10:52;26.20;29.80
72576;DHT22;60613;48.658;2.328;2023-06-04T13:13:18;26.20;30.10
72576;DHT22;60613;48.658;2.328;2023-06-04T13:15:44;26.20;30.80
72576;DHT22;60613;48.658;2.328;2023-06-04T13:18:10;26.20;30.70
72576;DHT22;60613;48.658;2.328;2023-06-04T13:20:36;26.20;30.20
72576;DHT22;60613;48.658;2.328;2023-06-04T13:23:02;26.20;30.00
72576;DHT22;60613;48.658;2.328;2023-06-04T13:25:28;26.20;30.80
72576;DHT22;60613;48.658;2.328;2023-06-04T13:27:54;26.30;30.20
72576;DHT22;60613;48.658;2.328;2023-06-04T13:30:21;26.30;30.90
72576;DHT22;60613;48.658;2.328;2023-06-04T13:32:48;26.30;30.80
72576;DHT22;60613;48.658;2.328;2023-06-04T13:35:13;26.30;30.20
72576;DHT22;60613;48.658;2.328;2023-06-04T13:37:39;26.30;30.00
72576;DHT22;60613;48.658;2.328;2023-06-04T13:40:05;26.30;30.00
72576;DHT22;60613;48.658;2.328;2023-06-04T13:42:31;26.30;30.60
72576;DHT22;60613;48.658;2.328;2023-06-04T13:44:56;26.30;30.10
72576;DHT22;60613;48.658;2.328;2023-06-04T13:47:22;26.30;30.20
72576;DHT22;60613;48.658;2.328;2023-06-04T13:49:48;26.30;30.40
72576;DHT22;60613;48.658;2.328;2023-06-04T13:52:13;26.30;30.60
72576;DHT22;60613;48.658;2.328;2023-06-04T13:54:39;26.30;30.40
72576;DHT22;60613;48.658;2.328;2023-06-04T13:57:05;26.30;30.90
72576;DHT22;60613;48.658;2.328;2023-06-04T13:59:32;26.30;30.50
72576;DHT22;60613;48.658;2.328;2023-06-04T14:01:59;26.30;30.60
72576;DHT22;60613;48.658;2.328;2023-06-04T14:04:24;26.30;30.20
72576;DHT22;60613;48.658;2.328;2023-06-04T14:06:50;26.30;30.50
72576;DHT22;60613;48.658;2.328;2023-06-04T14:09:16;26.30;30.40
72576;DHT22;60613;48.658;2.328;2023-06-04T14:11:41;26.30;30.30
72576;DHT22;60613;48.658;2.328;2023-06-04T14:14:07;26.30;30.50
72576;DHT22;60613;48.658;2.328;2023-06-04T14:16:33;26.40;30.70
72576;DHT22;60613;48.658;2.328;2023-06-04T14:18:59;26.30;31.10
72576;DHT22;60613;48.658;2.328;2023-06-04T14:21:26;26.40;30.50
72576;DHT22;60613;48.658;2.328;2023-06-04T14:23:52;26.40;30.90
72576;DHT22;60613;48.658;2.328;2023-06-04T14:26:18;26.40;30.60
72576;DHT22;60613;48.658;2.328;2023-06-04T14:28:44;26.40;30.00
72576;DHT22;60613;48.658;2.328;2023-06-04T14:31:10;26.50;31.00
72576;DHT22;60613;48.658;2.328;2023-06-04T14:33:35;26.40;29.70
72576;DHT22;60613;48.658;2.328;2023-06-04T14:36:03;26.50;29.70
72576;DHT22;60613;48.658;2.328;2023-06-04T14:38:29;26.50;30.00
72576;DHT22;60613;48.658;2.328;2023-06-04T14:40:55;26.50;30.40
72576;DHT22;60613;48.658;2.328;2023-06-04T14:43:24;26.50;30.00
72576;DHT22;60613;48.658;2.328;2023-06-04T14:45:49;26.50;29.80
72576;DHT22;60613;48.658;2.328;2023-06-04T14:48:15;26.60;29.70
72576;DHT22;60613;48.658;2.328;2023-06-04T14:50:41;26.60;30.00
72576;DHT22;60613;48.658;2.328;2023-06-04T14:53:07;26.60;30.00
72576;DHT22;60613;48.658;2.328;2023-06-04T14:55:33;26.60;29.10
72576;DHT22;60613;48.658;2.328;2023-06-04T14:58:00;26.60;29.30
72576;DHT22;60613;48.658;2.328;2023-06-04T15:00:25;26.60;29.80
72576;DHT22;60613;48.658;2.328;2023-06-04T15:02:51;26.60;29.50
72576;DHT22;60613;48.658;2.328;2023-06-04T15:05:16;26.60;29.40
72576;DHT22;60613;48.658;2.328;2023-06-04T15:07:42;26.60;29.50
72576;DHT22;60613;48.658;2.328;2023-06-04T15:10:08;26.60;29.30
72576;DHT22;60613;48.658;2.328;2023-06-04T15:12:34;26.60;29.30
72576;DHT22;60613;48.658;2.328;2023-06-04T15:15:04;26.70;29.20
72576;DHT22;60613;48.658;2.328;2023-06-04T15:17:30;26.70;29.30
72576;DHT22;60613;48.658;2.328;2023-06-04T15:19:56;26.70;29.30
72576;DHT22;60613;48.658;2.328;2023-06-04T15:22:22;26.70;28.40
72576;DHT22;60613;48.658;2.328;2023-06-04T15:24:47;26.70;27.80
72576;DHT22;60613;48.658;2.328;2023-06-04T15:27:13;26.70;27.50
72576;DHT22;60613;48.658;2.328;2023-06-04T15:29:38;26.70;28.00
72576;DHT22;60613;48.658;2.328;2023-06-04T15:32:04;26.70;27.80
72576;DHT22;60613;48.658;2.328;2023-06-04T15:34:30;26.70;28.20
72576;DHT22;60613;48.658;2.328;2023-06-04T15:36:56;26.70;28.70
72576;DHT22;60613;48.658;2.328;2023-06-04T15:39:22;26.80;27.90
72576;DHT22;60613;48.658;2.328;2023-06-04T15:41:47;26.80;28.80
72576;DHT22;60613;48.658;2.328;2023-06-04T15:44:13;26.80;28.50
72576;DHT22;60613;48.658;2.328;2023-06-04T15:46:38;26.80;29.00
72576;DHT22;60613;48.658;2.328;2023-06-04T15:49:07;26.90;29.70
72576;DHT22;60613;48.658;2.328;2023-06-04T15:51:34;26.90;29.60
72576;DHT22;60613;48.658;2.328;2023-06-04T15:54:00;26.90;28.00
72576;DHT22;60613;48.658;2.328;2023-06-04T15:56:27;26.90;28.40
72576;DHT22;60613;48.658;2.328;2023-06-04T15:58:52;26.90;28.20
72576;DHT22;60613;48.658;2.328;2023-06-04T16:01:18;26.90;28.00
72576;DHT22;60613;48.658;2.328;2023-06-04T16:03:44;26.90;28.60
72576;DHT22;60613;48.658;2.328;2023-06-04T16:06:12;26.90;28.90
72576;DHT22;60613;48.658;2.328;2023-06-04T16:08:38;27.00;29.30
72576;DHT22;60613;48.658;2.328;2023-06-04T16:11:04;26.90;28.80
72576;DHT22;60613;48.658;2.328;2023-06-04T16:13:29;27.00;28.80
72576;DHT22;60613;48.658;2.328;2023-06-04T16:15:56;27.00;29.00
72576;DHT22;60613;48.658;2.328;2023-06-04T16:18:22;27.00;29.00
72576;DHT22;60613;48.658;2.328;2023-06-04T16:20:47;27.00;28.70
72576;DHT22;60613;48.658;2.328;2023-06-04T16:23:13;27.00;28.80
72576;DHT22;60613;48.658;2.328;2023-06-04T16:25:39;27.00;28.60
72576;DHT22;60613;48.658;2.328;2023-06-04T16:28:04;27.00;29.30
72576;DHT22;60613;48.658;2.328;2023-06-04T16:30:31;27.10;29.40
72576;DHT22;60613;48.658;2.328;2023-06-04T16:32:56;27.10;28.80
72576;DHT22;60613;48.658;2.328;2023-06-04T16:35:22;27.10;28.70
72576;DHT22;60613;48.658;2.328;2023-06-04T16:37:48;27.10;29.30
72576;DHT22;60613;48.658;2.328;2023-06-04T16:40:14;27.10;29.20
72576;DHT22;60613;48.658;2.328;2023-06-04T16:42:40;27.10;28.90
72576;DHT22;60613;48.658;2.328;2023-06-04T16:45:06;27.10;28.90
72576;DHT22;60613;48.658;2.328;2023-06-04T16:47:33;27.10;29.30
72576;DHT22;60613;48.658;2.328;2023-06-04T16:50:00;27.10;28.40
72576;DHT22;60613;48.658;2.328;2023-06-04T16:52:26;27.10;28.50
72576;DHT22;60613;48.658;2.328;2023-06-04T16:54:51;27.10;29.00
72576;DHT22;60613;48.658;2.328;2023-06-04T16:57:17;27.10;29.10
72576;DHT22;60613;48.658;2.328;2023-06-04T16:59:47;27.10;28.80
72576;DHT22;60613;48.658;2.328;2023-06-04T17:02:14;27.10;28.30
72576;DHT22;60613;48.658;2.328;2023-06-04T17:04:40;27.20;28.30
72576;DHT22;60613;48.658;2.328;2023-06-04T17:07:06;27.20;28.50
72576;DHT22;60613;48.658;2.328;2023-06-04T17:09:32;27.20;27.90
72576;DHT22;60613;48.658;2.328;2023-06-04T17:11:58;27.20;28.10
72576;DHT22;60613;48.658;2.328;2023-06-04T17:14:24;27.20;28.00
72576;DHT22;60613;48.658;2.328;2023-06-04T17:16:49;27.20;28.00
72576;DHT22;60613;48.658;2.328;2023-06-04T17:19:15;27.30;28.30
72576;DHT22;60613;48.658;2.328;2023-06-04T17:21:41;27.30;28.20
72576;DHT22;60613;48.658;2.328;2023-06-04T17:24:07;27.30;28.30
72576;DHT22;60613;48.658;2.328;2023-06-04T17:26:33;27.30;28.20
72576;DHT22;60613;48.658;2.328;2023-06-04T17:28:58;27.30;28.30
72576;DHT22;60613;48.658;2.328;2023-06-04T17:31:25;27.30;27.90
72576;DHT22;60613;48.658;2.328;2023-06-04T17:33:51;27.30;27.80
72576;DHT22;60613;48.658;2.328;2023-06-04T17:36:17;27.30;28.20
72576;DHT22;60613;48.658;2.328;2023-06-04T17:38:48;27.40;28.30
72576;DHT22;60613;48.658;2.328;2023-06-04T17:41:14;27.40;28.40
72576;DHT22;60613;48.658;2.328;2023-06-04T17:43:41;27.40;27.80
72576;DHT22;60613;48.658;2.328;2023-06-04T17:46:07;27.40;27.80
72576;DHT22;60613;48.658;2.328;2023-06-04T17:48:33;27.30;27.90
72576;DHT22;60613;48.658;2.328;2023-06-04T17:50:59;27.30;28.10
72576;DHT22;60613;48.658;2.328;2023-06-04T17:53:25;27.30;28.30
72576;DHT22;60613;48.658;2.328;2023-06-04T17:55:50;27.30;28.30
72576;DHT22;60613;48.658;2.328;2023-06-04T17:58:16;27.40;28.40
72576;DHT22;60613;48.658;2.328;2023-06-04T18:00:42;27.40;28.40
72576;DHT22;60613;48.658;2.328;2023-06-04T18:03:10;27.40;28.40
72576;DHT22;60613;48.658;2.328;2023-06-04T18:05:37;27.40;28.60
72576;DHT22;60613;48.658;2.328;2023-06-04T18:08:02;27.40;28.50
72576;DHT22;60613;48.658;2.328;2023-06-04T18:10:28;27.40;28.30
72576;DHT22;60613;48.658;2.328;2023-06-04T18:12:54;27.40;28.40
72576;DHT22;60613;48.658;2.328;2023-06-04T18:15:19;27.40;28.40
72576;DHT22;60613;48.658;2.328;2023-06-04T18:17:45;27.40;28.40
72576;DHT22;60613;48.658;2.328;2023-06-04T18:20:11;27.40;28.20
72576;DHT22;60613;48.658;2.328;2023-06-04T18:22:37;27.40;28.80
72576;DHT22;60613;48.658;2.328;2023-06-04T18:25:03;27.40;28.30
72576;DHT22;60613;48.658;2.328;2023-06-04T18:27:36;27.40;28.50
72576;DHT22;60613;48.658;2.328;2023-06-04T18:30:03;27.40;28.50
72576;DHT22;60613;48.658;2.328;2023-06-04T18:32:29;27.40;28.40
72576;DHT22;60613;48.658;2.328;2023-06-04T18:34:54;27.50;28.40
72576;DHT22;60613;48.658;2.328;2023-06-04T18:37:20;27.50;28.30
72576;DHT22;60613;48.658;2.328;2023-06-04T18:39:46;27.40;28.40
72576;DHT22;60613;48.658;2.328;2023-06-04T18:42:11;27.40;28.40
72576;DHT22;60613;48.658;2.328;2023-06-04T18:44:37;27.40;28.50
72576;DHT22;60613;48.658;2.328;2023-06-04T18:47:03;27.40;28.50
72576;DHT22;60613;48.658;2.328;2023-06-04T18:49:30;27.40;28.70
72576;DHT22;60613;48.658;2.328;2023-06-04T18:51:56;27.50;28.60
72576;DHT22;60613;48.658;2.328;2023-06-04T18:54:22;27.40;28.50
72576;DHT22;60613;48.658;2.328;2023-06-04T18:56:48;27.40;28.50
72576;DHT22;60613;48.658;2.328;2023-06-04T18:59:15;27.40;28.50
